createdAt,value
2022-08-19T00:02:07.488Z,100.00
2022-08-19T00:04:38.009Z,100.00
2022-08-19T00:07:08.172Z,100.00
2022-08-19T00:09:36.733Z,100.00
2022-08-19T00:12:05.877Z,100.00
2022-08-19T00:14:34.658Z,100.00
2022-08-19T00:17:06.150Z,100.00
2022-08-19T00:19:35.749Z,100.00
2022-08-19T00:22:04.876Z,100.00
2022-08-19T00:24:34.146Z,100.00
2022-08-19T00:27:25.810Z,100.00
2022-08-19T00:29:53.214Z,100.00
2022-08-19T00:32:23.885Z,100.00
2022-08-19T00:34:54.555Z,100.00
2022-08-19T00:37:24.192Z,100.00
2022-08-19T00:39:53.269Z,100.00
2022-08-19T00:42:23.069Z,100.00
2022-08-19T00:44:52.858Z,100.00
2022-08-19T00:47:22.763Z,100.00
2022-08-19T00:49:54.277Z,100.00
2022-08-19T00:52:26.349Z,100.00
2022-08-19T00:54:55.515Z,100.00
2022-08-19T00:57:32.972Z,100.00
2022-08-19T01:00:03.544Z,100.00
2022-08-19T01:02:34.938Z,100.00
2022-08-19T01:05:06.704Z,100.00
2022-08-19T01:07:38.250Z,100.00
2022-08-19T01:10:10.030Z,100.00
2022-08-19T01:12:39.915Z,100.00
2022-08-19T01:15:14.851Z,100.00
2022-08-19T01:17:45.722Z,100.00
2022-08-19T01:20:16.425Z,100.00
2022-08-19T01:22:49.522Z,100.00
2022-08-19T01:25:21.561Z,100.00
2022-08-19T01:27:54.316Z,100.00
2022-08-19T01:30:31.338Z,100.00
2022-08-19T01:33:01.634Z,100.00
2022-08-19T01:35:32.608Z,100.00
2022-08-19T01:38:07.060Z,100.00
2022-08-19T01:40:39.539Z,100.00
2022-08-19T01:43:08.892Z,100.00
2022-08-19T01:45:41.260Z,100.00
2022-08-19T01:48:10.527Z,100.00
2022-08-19T01:50:39.101Z,100.00
2022-08-19T01:53:13.401Z,100.00
2022-08-19T01:55:44.770Z,100.00
2022-08-19T01:58:17.200Z,100.00
2022-08-19T02:00:47.389Z,100.00
2022-08-19T02:03:17.086Z,100.00
2022-08-19T02:05:46.783Z,100.00
2022-08-19T02:08:17.221Z,100.00
2022-08-19T02:10:46.491Z,100.00
2022-08-19T02:13:15.635Z,100.00
2022-08-19T02:15:50.952Z,100.00
2022-08-19T02:18:19.521Z,100.00
2022-08-19T02:20:48.659Z,100.00
2022-08-19T02:23:19.615Z,100.00
2022-08-19T02:25:53.572Z,100.00
2022-08-19T02:28:22.292Z,100.00
2022-08-19T02:30:50.826Z,100.00
2022-08-19T02:33:19.342Z,100.00
2022-08-19T02:35:49.318Z,100.00
2022-08-19T02:38:27.275Z,100.00
2022-08-19T02:40:59.415Z,100.00
2022-08-19T02:43:29.132Z,100.00
2022-08-19T02:46:02.670Z,100.00
2022-08-19T02:48:31.197Z,100.00
2022-08-19T02:51:00.546Z,100.00
2022-08-19T02:53:31.058Z,100.00
2022-08-19T02:55:59.784Z,100.00
2022-08-19T02:58:28.988Z,100.00
2022-08-19T03:00:58.714Z,100.00
2022-08-19T03:03:27.598Z,100.00
2022-08-19T03:06:06.711Z,100.00
2022-08-19T03:08:37.362Z,100.00
2022-08-19T03:11:34.758Z,100.00
2022-08-19T03:14:05.420Z,100.00
2022-08-19T03:16:43.274Z,100.00
2022-08-19T03:19:12.090Z,100.00
2022-08-19T03:21:40.519Z,100.00
2022-08-19T03:24:11.291Z,100.00
2022-08-19T03:26:42.432Z,100.00
2022-08-19T03:29:11.398Z,100.00
2022-08-19T03:31:52.512Z,100.00
2022-08-19T03:34:27.241Z,100.00
2022-08-19T03:36:57.134Z,100.00
2022-08-19T03:39:28.482Z,100.00
2022-08-19T03:42:30.067Z,100.00
2022-08-19T03:44:47.838Z,100.00
2022-08-19T03:47:17.596Z,100.00
2022-08-19T03:49:46.235Z,100.00
2022-08-19T03:52:15.289Z,100.00
2022-08-19T03:54:46.039Z,100.00
2022-08-19T03:57:14.580Z,100.00
2022-08-19T03:59:42.987Z,100.00
2022-08-19T04:02:13.582Z,100.00
2022-08-19T04:04:44.673Z,100.00
2022-08-19T04:07:17.326Z,100.00
2022-08-19T04:09:47.158Z,100.00
2022-08-19T04:12:16.010Z,100.00
2022-08-19T04:14:44.498Z,100.00
2022-08-19T04:17:15.117Z,100.00
2022-08-19T04:19:43.996Z,100.00
2022-08-19T04:22:13.696Z,100.00
2022-08-19T04:24:42.122Z,100.00
2022-08-19T04:27:12.234Z,100.00
2022-08-19T04:29:41.513Z,100.00
2022-08-19T04:32:10.194Z,100.00
2022-08-19T04:35:01.192Z,100.00
2022-08-19T04:37:35.430Z,100.00
2022-08-19T04:40:25.386Z,100.00
2022-08-19T04:42:55.605Z,100.00
2022-08-19T04:45:24.877Z,100.00
2022-08-19T04:48:26.241Z,100.00
2022-08-19T04:50:47.260Z,100.00
2022-08-19T04:53:16.471Z,100.00
2022-08-19T04:55:45.010Z,100.00
2022-08-19T04:58:18.620Z,100.00
2022-08-19T05:00:47.185Z,100.00
2022-08-19T05:03:18.163Z,100.00
2022-08-19T05:05:49.389Z,100.00
2022-08-19T05:08:30.962Z,100.00
2022-08-19T05:11:00.258Z,100.00
2022-08-19T05:13:30.610Z,100.00
2022-08-19T05:16:01.056Z,100.00
2022-08-19T05:18:47.266Z,100.00
2022-08-19T05:21:35.649Z,100.00
2022-08-19T05:24:08.894Z,100.00
2022-08-19T05:26:37.730Z,100.00
2022-08-19T05:29:09.610Z,100.00
2022-08-19T05:31:41.653Z,100.00
2022-08-19T05:34:20.298Z,100.00
2022-08-19T05:36:49.443Z,100.00
2022-08-19T05:39:21.450Z,100.00
2022-08-19T05:41:55.657Z,100.00
2022-08-19T05:44:27.031Z,100.00
2022-08-19T05:46:55.843Z,100.00
2022-08-19T05:49:26.445Z,100.00
2022-08-19T05:51:56.013Z,100.00
2022-08-19T05:54:25.736Z,100.00
2022-08-19T05:56:55.059Z,100.00
2022-08-19T05:59:26.351Z,100.00
2022-08-19T06:01:56.748Z,100.00
2022-08-19T06:04:26.426Z,100.00
2022-08-19T06:06:56.156Z,100.00
2022-08-19T06:09:25.669Z,100.00
2022-08-19T06:12:00.825Z,100.00
2022-08-19T06:14:33.399Z,100.00
2022-08-19T06:17:07.288Z,100.00
2022-08-19T06:19:41.020Z,100.00
2022-08-19T06:22:10.922Z,100.00
2022-08-19T06:24:39.294Z,100.00
2022-08-19T06:27:07.692Z,100.00
2022-08-19T06:29:38.070Z,100.00
2022-08-19T06:32:08.597Z,100.00
2022-08-19T06:34:40.629Z,100.00
2022-08-19T06:37:09.152Z,100.00
2022-08-19T06:39:43.489Z,100.00
2022-08-19T06:42:17.447Z,100.00
2022-08-19T06:44:53.578Z,100.00
2022-08-19T06:47:28.546Z,100.00
2022-08-19T06:50:01.166Z,100.00
2022-08-19T06:52:36.583Z,100.00
2022-08-19T06:55:08.238Z,100.00
2022-08-19T06:57:38.683Z,100.00
2022-08-19T07:00:14.346Z,100.00
2022-08-19T07:02:48.154Z,100.00
2022-08-19T07:05:22.264Z,99.70
2022-08-19T07:07:51.181Z,100.00
2022-08-19T07:10:20.397Z,100.00
2022-08-19T07:12:50.189Z,100.00
2022-08-19T07:15:22.453Z,100.00
2022-08-19T07:17:52.529Z,100.00
2022-08-19T07:20:21.919Z,98.69
2022-08-19T07:22:57.248Z,97.81
2022-08-19T07:25:32.223Z,97.01
2022-08-19T07:28:02.775Z,95.48
2022-08-19T07:30:39.751Z,95.01
2022-08-19T07:33:12.755Z,94.68
2022-08-19T07:35:43.517Z,94.20
2022-08-19T07:38:13.530Z,92.86
2022-08-19T07:40:48.089Z,92.98
2022-08-19T07:43:18.257Z,93.88
2022-08-19T07:45:48.668Z,91.28
2022-08-19T07:48:17.157Z,91.95
2022-08-19T07:50:49.712Z,92.55
2022-08-19T07:53:21.322Z,90.54
2022-08-19T07:55:50.941Z,88.57
2022-08-19T07:58:24.498Z,86.72
2022-08-19T08:00:54.781Z,87.20
2022-08-19T08:03:45.688Z,86.67
2022-08-19T08:06:33.146Z,87.07
2022-08-19T08:09:16.947Z,85.61
2022-08-19T08:11:50.601Z,86.37
2022-08-19T08:14:29.258Z,86.34
2022-08-19T08:17:10.997Z,86.26
2022-08-19T08:19:42.175Z,85.27
2022-08-19T08:22:33.877Z,83.65
2022-08-19T08:25:07.807Z,81.90
2022-08-19T08:27:40.527Z,80.47
2022-08-19T08:30:10.865Z,81.50
2022-08-19T08:32:41.716Z,77.25
2022-08-19T08:35:14.263Z,76.18
2022-08-19T08:37:43.025Z,76.74
2022-08-19T08:40:31.905Z,74.63
2022-08-19T08:43:11.349Z,76.28
2022-08-19T08:45:53.460Z,73.46
2022-08-19T08:48:29.871Z,71.45
2022-08-19T08:51:00.054Z,70.69
2022-08-19T08:53:33.397Z,70.69
2022-08-19T08:56:05.830Z,72.09
2022-08-19T08:58:44.252Z,72.09
2022-08-19T09:01:14.263Z,70.19
2022-08-19T09:03:46.442Z,69.14
2022-08-19T09:06:26.012Z,66.28
2022-08-19T09:09:04.393Z,67.17
2022-08-19T09:11:56.143Z,65.71
2022-08-19T09:14:51.282Z,65.71
2022-08-19T09:17:29.218Z,65.71
2022-08-19T09:20:03.694Z,65.71
2022-08-19T09:22:33.445Z,65.71
2022-08-19T09:25:02.256Z,65.71
2022-08-19T09:27:53.850Z,65.71
2022-08-19T09:30:23.233Z,65.71
2022-08-19T09:32:53.719Z,65.71
2022-08-19T09:35:25.073Z,65.71
2022-08-19T09:37:57.673Z,65.71
2022-08-19T09:40:30.337Z,60.02
2022-08-19T09:43:12.969Z,60.02
2022-08-19T09:45:42.687Z,60.02
2022-08-19T09:48:11.921Z,60.02
2022-08-19T09:50:52.027Z,60.02
2022-08-19T09:53:25.545Z,60.02
2022-08-19T09:55:54.714Z,60.02
2022-08-19T09:58:26.691Z,60.02
2022-08-19T10:00:55.947Z,60.02
2022-08-19T10:03:25.625Z,60.02
2022-08-19T10:06:02.667Z,60.02
2022-08-19T10:08:33.933Z,60.02
2022-08-19T10:11:27.223Z,60.02
2022-08-19T10:13:52.003Z,60.02
2022-08-19T10:16:26.036Z,60.02
2022-08-19T10:19:05.940Z,59.28
2022-08-19T10:21:38.839Z,59.28
2022-08-19T10:24:09.450Z,59.28
2022-08-19T10:26:46.095Z,59.28
2022-08-19T10:29:31.945Z,59.28
2022-08-19T10:32:02.234Z,59.28
2022-08-19T10:34:33.302Z,59.28
2022-08-19T10:37:05.880Z,59.28
2022-08-19T10:39:43.162Z,59.28
2022-08-19T10:42:14.172Z,59.28
2022-08-19T10:44:43.167Z,59.28
2022-08-19T10:50:41.249Z,59.28
2022-08-19T10:53:11.422Z,59.28
2022-08-19T10:56:03.673Z,59.28
2022-08-19T10:58:34.507Z,59.28
2022-08-19T11:01:02.904Z,59.28
2022-08-19T11:03:31.724Z,59.28
2022-08-19T11:06:03.160Z,59.28
2022-08-19T11:08:34.484Z,59.28
2022-08-19T11:11:04.905Z,59.28
2022-08-19T11:13:36.251Z,59.28
2022-08-19T11:16:08.186Z,59.28
2022-08-19T11:18:39.042Z,59.28
2022-08-19T11:21:12.366Z,54.10
2022-08-19T11:23:42.633Z,52.96
2022-08-19T11:26:12.096Z,52.96
2022-08-19T11:28:48.276Z,52.96
2022-08-19T11:31:20.384Z,52.96
2022-08-19T11:33:51.782Z,52.96
2022-08-19T11:36:21.593Z,52.96
2022-08-19T11:38:51.886Z,52.96
2022-08-19T11:41:24.097Z,52.96
2022-08-19T11:43:54.775Z,52.96
2022-08-19T11:46:24.986Z,52.96
2022-08-19T11:48:53.328Z,52.96
2022-08-19T11:51:23.711Z,52.96
2022-08-19T11:53:54.035Z,52.96
2022-08-19T11:56:23.762Z,52.96
2022-08-19T11:58:53.152Z,52.96
2022-08-19T12:01:25.100Z,52.96
2022-08-19T12:03:54.878Z,52.96
2022-08-19T12:06:29.483Z,52.96
2022-08-19T12:09:00.798Z,52.96
2022-08-19T12:11:34.581Z,52.96
2022-08-19T12:14:03.408Z,52.96
2022-08-19T12:16:32.961Z,52.96
2022-08-19T12:19:05.216Z,46.16
2022-08-19T12:21:36.460Z,47.17
2022-08-19T12:24:08.539Z,45.51
2022-08-19T12:26:53.406Z,45.57
2022-08-19T12:29:24.111Z,44.72
2022-08-19T12:31:53.483Z,47.93
2022-08-19T12:34:22.233Z,45.58
2022-08-19T12:36:51.451Z,46.58
2022-08-19T12:39:22.012Z,47.83
2022-08-19T12:41:54.712Z,48.55
2022-08-19T12:44:29.508Z,47.63
2022-08-19T12:47:01.305Z,50.13
2022-08-19T12:49:53.760Z,47.55
2022-08-19T12:52:23.858Z,48.52
2022-08-19T12:54:57.104Z,48.35
2022-08-19T12:57:34.484Z,47.07
2022-08-19T13:00:10.813Z,47.03
2022-08-19T13:02:39.848Z,47.50
2022-08-19T13:05:13.708Z,48.10
2022-08-19T13:07:44.932Z,46.62
2022-08-19T13:10:19.060Z,45.83
2022-08-19T13:12:49.352Z,45.81
2022-08-19T13:15:23.870Z,46.89
2022-08-19T13:17:56.907Z,47.42
2022-08-19T13:20:26.764Z,45.40
2022-08-19T13:22:55.971Z,45.57
2022-08-19T13:25:26.803Z,47.03
2022-08-19T13:27:58.104Z,44.95
2022-08-19T13:30:43.974Z,44.56
2022-08-19T13:33:16.760Z,42.75
2022-08-19T13:35:48.701Z,41.91
2022-08-19T13:38:20.346Z,43.00
2022-08-19T13:40:52.748Z,46.33
2022-08-19T13:43:23.805Z,44.40
2022-08-19T13:45:57.384Z,44.52
2022-08-19T13:48:28.414Z,44.20
2022-08-19T13:50:57.377Z,43.57
2022-08-19T13:53:25.805Z,43.14
2022-08-19T13:55:55.804Z,43.99
2022-08-19T13:58:26.411Z,43.76
2022-08-19T14:00:57.368Z,43.94
2022-08-19T14:03:25.824Z,44.02
2022-08-19T14:06:38.797Z,43.86
2022-08-19T14:09:12.570Z,43.33
2022-08-19T14:11:47.698Z,45.34
2022-08-19T14:14:16.607Z,44.79
2022-08-19T14:16:49.516Z,43.16
2022-08-19T14:19:18.659Z,43.62
2022-08-19T14:21:47.075Z,43.51
2022-08-19T14:24:16.718Z,43.71
2022-08-19T14:26:46.668Z,43.98
2022-08-19T14:29:14.935Z,44.39
2022-08-19T14:31:45.103Z,43.48
2022-08-19T14:34:13.832Z,43.80
2022-08-19T14:36:42.934Z,44.01
2022-08-19T14:39:11.642Z,43.97
2022-08-19T14:41:42.619Z,45.79
2022-08-19T14:44:13.540Z,44.83
2022-08-19T14:46:49.497Z,43.81
2022-08-19T14:49:19.030Z,44.69
2022-08-19T14:51:48.782Z,44.41
2022-08-19T14:54:17.142Z,45.15
2022-08-19T14:56:48.087Z,45.75
2022-08-19T14:59:18.529Z,45.21
2022-08-19T15:01:46.704Z,45.11
2022-08-19T15:04:15.057Z,45.60
2022-08-19T15:06:43.709Z,46.35
2022-08-19T15:09:12.469Z,45.76
2022-08-19T15:11:40.843Z,47.17
2022-08-19T15:14:11.045Z,47.15
2022-08-19T15:16:42.874Z,47.71
2022-08-19T15:19:11.449Z,47.65
2022-08-19T15:21:39.668Z,47.63
2022-08-19T15:24:08.360Z,48.36
2022-08-19T15:26:36.738Z,47.47
2022-08-19T15:29:05.814Z,47.68
2022-08-19T15:31:38.342Z,49.31
2022-08-19T15:34:09.445Z,48.31
2022-08-19T15:36:37.783Z,49.27
2022-08-19T15:39:06.578Z,45.87
2022-08-19T15:41:34.931Z,47.33
2022-08-19T15:44:09.120Z,45.69
2022-08-19T15:46:39.422Z,43.50
2022-08-19T15:49:10.454Z,43.57
2022-08-19T15:51:40.311Z,42.94
2022-08-19T15:54:10.823Z,44.00
2022-08-19T15:56:57.675Z,43.73
2022-08-19T15:59:47.052Z,44.66
2022-08-19T16:02:33.888Z,45.36
2022-08-19T16:05:21.008Z,45.94
2022-08-19T16:07:49.438Z,46.36
2022-08-19T16:10:26.084Z,45.57
2022-08-19T16:12:57.205Z,46.91
2022-08-19T16:15:27.469Z,47.26
2022-08-19T16:17:56.978Z,48.31
2022-08-19T16:20:28.115Z,48.77
2022-08-19T16:22:58.453Z,49.10
2022-08-19T16:25:29.223Z,49.68
2022-08-19T16:28:07.572Z,50.42
2022-08-19T16:30:39.027Z,49.44
2022-08-19T16:33:08.413Z,50.34
2022-08-19T16:35:38.024Z,50.32
2022-08-19T16:38:07.085Z,52.24
2022-08-19T16:40:36.343Z,51.47
2022-08-19T16:43:04.742Z,50.87
2022-08-19T16:45:33.233Z,50.92
2022-08-19T16:48:01.756Z,51.62
2022-08-19T16:50:48.124Z,52.68
2022-08-19T16:53:20.853Z,52.69
2022-08-19T16:55:50.868Z,52.95
2022-08-19T16:58:19.764Z,52.86
2022-08-19T17:00:50.144Z,53.78
2022-08-19T17:03:19.770Z,53.96
2022-08-19T17:06:04.699Z,53.45
2022-08-19T17:08:48.729Z,53.47
2022-08-19T17:11:19.146Z,54.47
2022-08-19T17:13:48.313Z,54.95
2022-08-19T17:16:17.560Z,54.82
2022-08-19T17:18:45.926Z,55.41
2022-08-19T17:21:14.441Z,56.29
2022-08-19T17:23:44.104Z,55.96
2022-08-19T17:26:18.071Z,57.22
2022-08-19T17:28:49.594Z,57.33
2022-08-19T17:31:23.726Z,59.30
2022-08-19T17:33:52.164Z,58.91
2022-08-19T17:36:23.409Z,59.34
2022-08-19T17:38:52.129Z,59.27
2022-08-19T17:41:21.663Z,59.18
2022-08-19T17:43:50.401Z,59.29
2022-08-19T17:46:19.496Z,59.65
2022-08-19T17:48:52.738Z,60.49
2022-08-19T17:51:23.922Z,60.81
2022-08-19T17:53:54.301Z,61.54
2022-08-19T17:56:24.978Z,62.48
2022-08-19T17:58:59.978Z,62.49
2022-08-19T18:01:39.591Z,63.01
2022-08-19T18:04:19.862Z,63.71
2022-08-19T18:06:53.638Z,63.48
2022-08-19T18:09:28.794Z,64.57
2022-08-19T18:12:09.986Z,64.59
2022-08-19T18:14:39.901Z,65.22
2022-08-19T18:17:10.890Z,65.79
2022-08-19T18:19:42.970Z,66.68
2022-08-19T18:22:22.569Z,69.73
2022-08-19T18:24:51.136Z,70.04
2022-08-19T18:27:21.326Z,70.64
2022-08-19T18:29:50.047Z,69.35
2022-08-19T18:32:24.033Z,71.53
2022-08-19T18:34:53.406Z,69.78
2022-08-19T18:37:23.050Z,70.28
2022-08-19T18:40:13.259Z,70.64
2022-08-19T18:43:04.707Z,69.32
2022-08-19T18:45:51.052Z,71.45
2022-08-19T18:48:37.117Z,69.45
2022-08-19T18:51:05.785Z,69.98
2022-08-19T18:53:37.965Z,70.23
2022-08-19T18:56:06.823Z,69.29
2022-08-19T18:58:38.738Z,69.21
2022-08-19T19:01:11.763Z,68.21
2022-08-19T19:03:44.331Z,69.70
2022-08-19T19:06:13.005Z,69.42
2022-08-19T19:08:41.557Z,68.58
2022-08-19T19:11:10.308Z,67.96
2022-08-19T19:13:41.213Z,69.08
2022-08-19T19:16:11.679Z,68.94
2022-08-19T19:18:40.530Z,69.81
2022-08-19T19:21:10.030Z,68.88
2022-08-19T19:23:41.043Z,67.72
2022-08-19T19:26:11.019Z,68.14
2022-08-19T19:28:48.100Z,69.40
2022-08-19T19:31:18.433Z,69.23
2022-08-19T19:33:47.668Z,69.24
2022-08-19T19:36:16.142Z,69.97
2022-08-19T19:38:48.560Z,69.67
2022-08-19T19:41:19.351Z,70.75
2022-08-19T19:43:59.917Z,70.65
2022-08-19T19:46:39.308Z,70.29
2022-08-19T19:49:07.949Z,69.63
2022-08-19T19:51:39.574Z,70.47
2022-08-19T19:54:13.740Z,69.39
2022-08-19T19:56:45.082Z,70.10
2022-08-19T19:59:15.655Z,70.32
2022-08-19T20:01:46.086Z,71.26
2022-08-19T20:04:15.971Z,70.69
2022-08-19T20:06:44.855Z,70.63
2022-08-19T20:09:17.571Z,71.48
2022-08-19T20:11:53.374Z,71.23
2022-08-19T20:14:26.327Z,72.30
2022-08-19T20:16:56.788Z,70.47
2022-08-19T20:19:27.268Z,70.07
2022-08-19T20:21:57.545Z,70.50
2022-08-19T20:24:28.046Z,71.47
2022-08-19T20:26:58.109Z,71.69
2022-08-19T20:29:39.078Z,70.96
2022-08-19T20:32:11.340Z,70.74
2022-08-19T20:34:39.805Z,71.99
2022-08-19T20:37:09.443Z,71.08
2022-08-19T20:39:38.536Z,70.77
2022-08-19T20:42:10.686Z,71.88
2022-08-19T20:44:40.487Z,72.21
2022-08-19T20:47:08.704Z,74.74
2022-08-19T20:49:37.157Z,75.45
2022-08-19T20:52:06.429Z,75.44
2022-08-19T20:54:34.819Z,75.09
2022-08-19T20:57:05.481Z,75.17
2022-08-19T20:59:34.207Z,75.08
2022-08-19T21:02:03.881Z,75.99
2022-08-19T21:04:33.173Z,75.33
2022-08-19T21:07:04.506Z,74.99
2022-08-19T21:09:32.889Z,75.48
2022-08-19T21:12:01.718Z,74.96
2022-08-19T21:14:31.017Z,76.07
2022-08-19T21:16:59.274Z,75.09
2022-08-19T21:19:29.216Z,74.45
2022-08-19T21:21:58.043Z,74.82
2022-08-19T21:24:31.414Z,74.52
2022-08-19T21:27:00.630Z,75.15
2022-08-19T21:29:31.944Z,75.52
2022-08-19T21:32:00.844Z,75.44
2022-08-19T21:34:30.892Z,74.74
2022-08-19T21:36:59.229Z,74.72
2022-08-19T21:39:28.045Z,74.90
2022-08-19T21:41:56.357Z,75.24
2022-08-19T21:44:24.612Z,75.81
2022-08-19T21:46:53.223Z,75.75
2022-08-19T21:49:22.319Z,75.55
2022-08-19T21:51:52.733Z,75.34
2022-08-19T21:54:21.287Z,74.89
2022-08-19T21:56:50.463Z,74.99
2022-08-19T21:59:18.839Z,75.44
2022-08-19T22:01:51.504Z,74.84
2022-08-19T22:04:25.067Z,74.81
2022-08-19T22:06:56.518Z,75.29
2022-08-19T22:09:24.888Z,74.87
2022-08-19T22:11:53.260Z,74.46
2022-08-19T22:14:24.563Z,74.38
2022-08-19T22:16:53.243Z,74.27
2022-08-19T22:19:21.487Z,74.48
2022-08-19T22:21:50.140Z,75.14
2022-08-19T22:24:19.956Z,74.60
2022-08-19T22:26:48.310Z,74.31
2022-08-19T22:29:17.363Z,74.34
2022-08-19T22:31:45.782Z,75.19
2022-08-19T22:34:23.282Z,74.17
2022-08-19T22:36:51.592Z,74.03
2022-08-19T22:39:21.354Z,73.55
2022-08-19T22:41:50.200Z,72.67
2022-08-19T22:44:18.764Z,72.18
2022-08-19T22:46:50.420Z,71.64
2022-08-19T22:49:19.046Z,70.91
2022-08-19T22:52:04.408Z,71.23
2022-08-19T22:54:34.351Z,70.99
2022-08-19T22:57:02.643Z,72.31
2022-08-19T22:59:31.052Z,72.67
2022-08-19T23:01:59.414Z,72.77
2022-08-19T23:04:27.719Z,74.28
2022-08-19T23:06:55.933Z,73.96
2022-08-19T23:09:24.534Z,74.21
2022-08-19T23:12:00.796Z,74.41
2022-08-19T23:14:29.507Z,74.95
2022-08-19T23:16:59.224Z,74.22
2022-08-19T23:19:27.658Z,74.26
2022-08-19T23:21:56.267Z,75.47
2022-08-19T23:24:24.643Z,75.93
2022-08-19T23:27:11.277Z,75.88
2022-08-19T23:29:58.934Z,78.71
2022-08-19T23:32:27.380Z,79.42
2022-08-19T23:34:58.037Z,78.70
2022-08-19T23:37:29.192Z,80.82
2022-08-19T23:39:58.284Z,81.07
2022-08-19T23:42:27.313Z,80.23
2022-08-19T23:45:00.718Z,78.68
2022-08-19T23:47:30.512Z,80.81
2022-08-19T23:49:59.252Z,79.75
2022-08-19T23:52:28.386Z,79.69
2022-08-19T23:55:01.628Z,79.34
2022-08-19T23:57:30.139Z,79.47
